sensor_id;sensor_type;location;lat;lon;timestamp;temperature;humidity
35541;DHT22;21650;48.840;9.162;2023-05-07T00:00:33;15.00;99.90
35541;DHT22;21650;48.840;9.162;2023-05-07T00:02:59;14.90;99.90
35541;DHT22;21650;48.840;9.162;2023-05-07T00:05:25;15.00;99.90
35541;DHT22;21650;48.840;9.162;2023-05-07T00:07:51;15.00;99.90
35541;DHT22;21650;48.840;9.162;2023-05-07T00:10:18;14.90;99.90
35541;DHT22;21650;48.840;9.162;2023-05-07T00:12:44;14.80;99.90
35541;DHT22;21650;48.840;9.162;2023-05-07T00:15:10;14.90;99.90
35541;DHT22;21650;48.840;9.162;2023-05-07T00:17:35;14.90;99.90
35541;DHT22;21650;48.840;9.162;2023-05-07T00:20:02;14.90;99.90
35541;DHT22;21650;48.840;9.162;2023-05-07T00:22:29;14.90;99.90
35541;DHT22;21650;48.840;9.162;2023-05-07T00:24:55;14.80;99.90
35541;DHT22;21650;48.840;9.162;2023-05-07T00:27:22;14.90;99.90
35541;DHT22;21650;48.840;9.162;2023-05-07T00:29:48;14.80;99.90
35541;DHT22;21650;48.840;9.162;2023-05-07T00:32:13;14.80;99.90
35541;DHT22;21650;48.840;9.162;2023-05-07T00:34:39;14.80;99.90
35541;DHT22;21650;48.840;9.162;2023-05-07T00:37:05;14.70;99.90
35541;DHT22;21650;48.840;9.162;2023-05-07T00:39:30;14.70;99.90
35541;DHT22;21650;48.840;9.162;2023-05-07T00:41:56;14.70;99.90
35541;DHT22;21650;48.840;9.162;2023-05-07T00:44:22;14.70;99.90
35541;DHT22;21650;48.840;9.162;2023-05-07T00:46:48;14.70;99.90
35541;DHT22;21650;48.840;9.162;2023-05-07T00:49:15;14.60;99.90
35541;DHT22;21650;48.840;9.162;2023-05-07T00:51:41;14.50;99.90
35541;DHT22;21650;48.840;9.162;2023-05-07T00:54:07;14.50;99.90
35541;DHT22;21650;48.840;9.162;2023-05-07T00:56:33;14.40;99.90
35541;DHT22;21650;48.840;9.162;2023-05-07T00:59:01;14.40;99.90
35541;DHT22;21650;48.840;9.162;2023-05-07T01:01:26;14.40;99.90
35541;DHT22;21650;48.840;9.162;2023-05-07T01:03:53;14.40;99.90
35541;DHT22;21650;48.840;9.162;2023-05-07T01:06:19;14.30;99.90
35541;DHT22;21650;48.840;9.162;2023-05-07T01:08:46;14.30;99.90
35541;DHT22;21650;48.840;9.162;2023-05-07T01:11:13;14.30;99.90
35541;DHT22;21650;48.840;9.162;2023-05-07T01:13:39;14.40;99.90
35541;DHT22;21650;48.840;9.162;2023-05-07T01:16:06;14.40;99.90
35541;DHT22;21650;48.840;9.162;2023-05-07T01:18:32;14.30;99.90
35541;DHT22;21650;48.840;9.162;2023-05-07T01:20:58;14.20;99.90
35541;DHT22;21650;48.840;9.162;2023-05-07T01:23:25;14.30;99.90
35541;DHT22;21650;48.840;9.162;2023-05-07T01:25:53;14.20;99.90
35541;DHT22;21650;48.840;9.162;2023-05-07T01:28:19;14.20;99.90
35541;DHT22;21650;48.840;9.162;2023-05-07T01:30:48;14.20;99.90
35541;DHT22;21650;48.840;9.162;2023-05-07T01:33:19;14.20;99.90
35541;DHT22;21650;48.840;9.162;2023-05-07T01:35:47;14.20;99.90
35541;DHT22;21650;48.840;9.162;2023-05-07T01:38:14;14.20;99.90
35541;DHT22;21650;48.840;9.162;2023-05-07T01:40:40;14.20;99.90
35541;DHT22;21650;48.840;9.162;2023-05-07T01:43:06;14.10;99.90
35541;DHT22;21650;48.840;9.162;2023-05-07T01:45:32;14.10;99.90
35541;DHT22;21650;48.840;9.162;2023-05-07T01:47:59;14.10;99.90
35541;DHT22;21650;48.840;9.162;2023-05-07T01:50:25;14.20;99.90
35541;DHT22;21650;48.840;9.162;2023-05-07T01:52:51;14.10;99.90
35541;DHT22;21650;48.840;9.162;2023-05-07T01:55:17;14.20;99.90
35541;DHT22;21650;48.840;9.162;2023-05-07T01:57:43;14.10;99.90
35541;DHT22;21650;48.840;9.162;2023-05-07T02:00:08;14.00;99.90
35541;DHT22;21650;48.840;9.162;2023-05-07T02:02:34;14.10;99.90
35541;DHT22;21650;48.840;9.162;2023-05-07T02:05:00;14.20;99.90
35541;DHT22;21650;48.840;9.162;2023-05-07T02:07:28;14.20;99.90
35541;DHT22;21650;48.840;9.162;2023-05-07T02:09:54;14.20;99.90
35541;DHT22;21650;48.840;9.162;2023-05-07T02:12:23;14.10;99.90
35541;DHT22;21650;48.840;9.162;2023-05-07T02:14:49;14.10;99.90
35541;DHT22;21650;48.840;9.162;2023-05-07T02:17:14;14.20;99.90
35541;DHT22;21650;48.840;9.162;2023-05-07T02:19:40;14.10;99.90
35541;DHT22;21650;48.840;9.162;2023-05-07T02:22:07;14.10;99.90
35541;DHT22;21650;48.840;9.162;2023-05-07T02:24:32;14.00;99.90
35541;DHT22;21650;48.840;9.162;2023-05-07T02:26:58;14.10;99.90
35541;DHT22;21650;48.840;9.162;2023-05-07T02:29:24;14.10;99.90
35541;DHT22;21650;48.840;9.162;2023-05-07T02:31:49;14.00;99.90
35541;DHT22;21650;48.840;9.162;2023-05-07T02:34:16;14.00;99.90
35541;DHT22;21650;48.840;9.162;2023-05-07T02:36:42;13.90;99.90
35541;DHT22;21650;48.840;9.162;2023-05-07T02:39:08;14.00;99.90
35541;DHT22;21650;48.840;9.162;2023-05-07T02:41:34;14.00;99.90
35541;DHT22;21650;48.840;9.162;2023-05-07T02:43:59;14.00;99.90
35541;DHT22;21650;48.840;9.162;2023-05-07T02:46:25;13.90;99.90
35541;DHT22;21650;48.840;9.162;2023-05-07T02:48:51;13.90;99.90
35541;DHT22;21650;48.840;9.162;2023-05-07T02:51:20;13.90;99.90
35541;DHT22;21650;48.840;9.162;2023-05-07T02:53:46;13.80;99.90
35541;DHT22;21650;48.840;9.162;2023-05-07T02:56:12;13.80;99.90
35541;DHT22;21650;48.840;9.162;2023-05-07T02:58:38;13.70;99.90
35541;DHT22;21650;48.840;9.162;2023-05-07T03:01:08;13.70;99.90
35541;DHT22;21650;48.840;9.162;2023-05-07T03:03:33;13.70;99.90
35541;DHT22;21650;48.840;9.162;2023-05-07T03:05:59;13.70;99.90
35541;DHT22;21650;48.840;9.162;2023-05-07T03:08:25;13.70;99.90
35541;DHT22;21650;48.840;9.162;2023-05-07T03:10:50;13.70;99.90
35541;DHT22;21650;48.840;9.162;2023-05-07T03:13:16;13.60;99.90
35541;DHT22;21650;48.840;9.162;2023-05-07T03:15:42;13.50;99.90
35541;DHT22;21650;48.840;9.162;2023-05-07T03:18:07;13.40;99.90
35541;DHT22;21650;48.840;9.162;2023-05-07T03:20:33;13.40;99.90
35541;DHT22;21650;48.840;9.162;2023-05-07T03:22:59;13.30;99.90
35541;DHT22;21650;48.840;9.162;2023-05-07T03:25:24;13.40;99.90
35541;DHT22;21650;48.840;9.162;2023-05-07T03:27:50;13.40;99.90
35541;DHT22;21650;48.840;9.162;2023-05-07T03:30:16;13.40;99.90
35541;DHT22;21650;48.840;9.162;2023-05-07T03:32:41;13.30;99.90
35541;DHT22;21650;48.840;9.162;2023-05-07T03:35:07;13.20;99.90
35541;DHT22;21650;48.840;9.162;2023-05-07T03:37:33;13.20;99.90
35541;DHT22;21650;48.840;9.162;2023-05-07T03:39:58;13.20;99.90
35541;DHT22;21650;48.840;9.162;2023-05-07T03:42:25;13.20;99.90
35541;DHT22;21650;48.840;9.162;2023-05-07T03:44:50;13.10;99.90
35541;DHT22;21650;48.840;9.162;2023-05-07T03:47:16;13.10;99.90
35541;DHT22;21650;48.840;9.162;2023-05-07T03:49:43;13.10;99.90
35541;DHT22;21650;48.840;9.162;2023-05-07T03:52:10;13.00;99.90
35541;DHT22;21650;48.840;9.162;2023-05-07T03:54:36;13.10;99.90
35541;DHT22;21650;48.840;9.162;2023-05-07T03:57:01;13.00;99.90
35541;DHT22;21650;48.840;9.162;2023-05-07T03:59:27;13.10;99.90
35541;DHT22;21650;48.840;9.162;2023-05-07T04:01:52;13.10;99.90
35541;DHT22;21650;48.840;9.162;2023-05-07T04:04:18;13.00;99.90
35541;DHT22;21650;48.840;9.162;2023-05-07T04:06:43;13.00;99.90
35541;DHT22;21650;48.840;9.162;2023-05-07T04:09:09;13.00;99.90
35541;DHT22;21650;48.840;9.162;2023-05-07T04:11:35;13.00;99.90
35541;DHT22;21650;48.840;9.162;2023-05-07T04:14:01;13.10;99.90
35541;DHT22;21650;48.840;9.162;2023-05-07T04:16:27;13.10;99.90
35541;DHT22;21650;48.840;9.162;2023-05-07T04:18:52;13.10;99.90
35541;DHT22;21650;48.840;9.162;2023-05-07T04:21:19;13.10;99.90
35541;DHT22;21650;48.840;9.162;2023-05-07T04:23:49;13.10;99.90
35541;DHT22;21650;48.840;9.162;2023-05-07T04:26:15;13.10;99.90
35541;DHT22;21650;48.840;9.162;2023-05-07T04:28:41;13.20;99.90
35541;DHT22;21650;48.840;9.162;2023-05-07T04:31:07;13.20;99.90
35541;DHT22;21650;48.840;9.162;2023-05-07T04:33:33;13.20;99.90
35541;DHT22;21650;48.840;9.162;2023-05-07T04:36:01;13.20;99.90
35541;DHT22;21650;48.840;9.162;2023-05-07T04:38:29;13.30;99.90
35541;DHT22;21650;48.840;9.162;2023-05-07T04:40:55;13.40;99.90
35541;DHT22;21650;48.840;9.162;2023-05-07T04:43:21;13.40;99.90
35541;DHT22;21650;48.840;9.162;2023-05-07T04:45:46;13.50;99.90
35541;DHT22;21650;48.840;9.162;2023-05-07T04:48:12;13.50;99.90
35541;DHT22;21650;48.840;9.162;2023-05-07T04:50:39;13.60;99.90
35541;DHT22;21650;48.840;9.162;2023-05-07T04:53:05;13.70;99.90
35541;DHT22;21650;48.840;9.162;2023-05-07T04:55:30;13.70;99.90
35541;DHT22;21650;48.840;9.162;2023-05-07T04:57:56;13.70;99.90
35541;DHT22;21650;48.840;9.162;2023-05-07T05:00:21;13.80;99.90
35541;DHT22;21650;48.840;9.162;2023-05-07T05:02:48;13.80;99.90
35541;DHT22;21650;48.840;9.162;2023-05-07T05:05:13;13.70;99.90
35541;DHT22;21650;48.840;9.162;2023-05-07T05:07:39;13.70;99.90
35541;DHT22;21650;48.840;9.162;2023-05-07T05:10:05;13.80;99.90
35541;DHT22;21650;48.840;9.162;2023-05-07T05:12:31;13.70;99.90
35541;DHT22;21650;48.840;9.162;2023-05-07T05:14:56;13.70;99.90
35541;DHT22;21650;48.840;9.162;2023-05-07T05:17:22;13.70;99.90
35541;DHT22;21650;48.840;9.162;2023-05-07T05:19:47;13.80;99.90
35541;DHT22;21650;48.840;9.162;2023-05-07T05:22:13;13.80;99.90
35541;DHT22;21650;48.840;9.162;2023-05-07T05:24:38;13.80;99.90
35541;DHT22;21650;48.840;9.162;2023-05-07T05:27:04;13.70;99.90
35541;DHT22;21650;48.840;9.162;2023-05-07T05:29:30;13.80;99.90
35541;DHT22;21650;48.840;9.162;2023-05-07T05:31:57;13.80;99.90
35541;DHT22;21650;48.840;9.162;2023-05-07T05:34:22;13.80;99.90
35541;DHT22;21650;48.840;9.162;2023-05-07T05:36:48;13.70;99.90
35541;DHT22;21650;48.840;9.162;2023-05-07T05:39:13;13.80;99.90
35541;DHT22;21650;48.840;9.162;2023-05-07T05:41:39;14.00;99.90
35541;DHT22;21650;48.840;9.162;2023-05-07T05:44:05;14.20;99.90
35541;DHT22;21650;48.840;9.162;2023-05-07T05:46:30;14.30;99.90
35541;DHT22;21650;48.840;9.162;2023-05-07T05:48:56;14.50;99.90
35541;DHT22;21650;48.840;9.162;2023-05-07T05:51:22;14.70;99.90
35541;DHT22;21650;48.840;9.162;2023-05-07T05:53:48;14.60;99.90
35541;DHT22;21650;48.840;9.162;2023-05-07T05:56:14;14.70;99.90
35541;DHT22;21650;48.840;9.162;2023-05-07T05:58:39;14.90;99.90
35541;DHT22;21650;48.840;9.162;2023-05-07T06:01:05;15.00;99.90
35541;DHT22;21650;48.840;9.162;2023-05-07T06:03:31;15.10;99.90
35541;DHT22;21650;48.840;9.162;2023-05-07T06:05:57;15.10;99.90
35541;DHT22;21650;48.840;9.162;2023-05-07T06:08:23;15.30;99.90
35541;DHT22;21650;48.840;9.162;2023-05-07T06:10:48;15.50;99.90
35541;DHT22;21650;48.840;9.162;2023-05-07T06:13:14;15.50;99.90
35541;DHT22;21650;48.840;9.162;2023-05-07T06:15:39;15.60;99.90
35541;DHT22;21650;48.840;9.162;2023-05-07T06:18:05;15.70;99.90
35541;DHT22;21650;48.840;9.162;2023-05-07T06:20:30;15.90;99.90
35541;DHT22;21650;48.840;9.162;2023-05-07T06:22:56;15.80;99.90
35541;DHT22;21650;48.840;9.162;2023-05-07T06:25:21;15.90;99.90
35541;DHT22;21650;48.840;9.162;2023-05-07T06:27:47;15.80;99.90
35541;DHT22;21650;48.840;9.162;2023-05-07T06:30:12;15.80;99.90
35541;DHT22;21650;48.840;9.162;2023-05-07T06:32:40;15.80;99.90
35541;DHT22;21650;48.840;9.162;2023-05-07T06:35:06;15.80;99.90
35541;DHT22;21650;48.840;9.162;2023-05-07T06:37:31;15.90;99.90
35541;DHT22;21650;48.840;9.162;2023-05-07T06:39:57;16.00;99.90
35541;DHT22;21650;48.840;9.162;2023-05-07T06:42:22;16.00;99.90
35541;DHT22;21650;48.840;9.162;2023-05-07T06:44:48;16.00;99.90
35541;DHT22;21650;48.840;9.162;2023-05-07T06:47:13;16.00;99.90
35541;DHT22;21650;48.840;9.162;2023-05-07T06:49:39;16.10;99.90
35541;DHT22;21650;48.840;9.162;2023-05-07T06:52:04;16.20;99.90
35541;DHT22;21650;48.840;9.162;2023-05-07T06:54:30;16.20;99.90
35541;DHT22;21650;48.840;9.162;2023-05-07T06:56:56;16.50;99.90
35541;DHT22;21650;48.840;9.162;2023-05-07T06:59:21;16.50;99.90
35541;DHT22;21650;48.840;9.162;2023-05-07T07:01:47;16.60;99.90
35541;DHT22;21650;48.840;9.162;2023-05-07T07:04:13;16.80;99.90
35541;DHT22;21650;48.840;9.162;2023-05-07T07:06:38;17.00;99.90
35541;DHT22;21650;48.840;9.162;2023-05-07T07:09:04;16.90;99.90
35541;DHT22;21650;48.840;9.162;2023-05-07T07:11:29;16.90;99.90
35541;DHT22;21650;48.840;9.162;2023-05-07T07:13:55;17.00;99.90
35541;DHT22;21650;48.840;9.162;2023-05-07T07:18:55;17.30;99.90
35541;DHT22;21650;48.840;9.162;2023-05-07T07:21:20;17.40;99.90
35541;DHT22;21650;48.840;9.162;2023-05-07T07:23:46;17.40;99.90
35541;DHT22;21650;48.840;9.162;2023-05-07T07:26:11;17.50;99.90
35541;DHT22;21650;48.840;9.162;2023-05-07T07:28:43;17.60;99.90
35541;DHT22;21650;48.840;9.162;2023-05-07T07:31:09;17.80;99.90
35541;DHT22;21650;48.840;9.162;2023-05-07T07:33:34;17.90;99.90
35541;DHT22;21650;48.840;9.162;2023-05-07T07:36:00;18.10;99.90
35541;DHT22;21650;48.840;9.162;2023-05-07T07:38:25;18.30;99.90
35541;DHT22;21650;48.840;9.162;2023-05-07T07:40:51;18.50;99.90
35541;DHT22;21650;48.840;9.162;2023-05-07T07:43:17;18.60;99.90
35541;DHT22;21650;48.840;9.162;2023-05-07T07:45:42;18.60;99.90
35541;DHT22;21650;48.840;9.162;2023-05-07T07:48:08;18.80;99.90
35541;DHT22;21650;48.840;9.162;2023-05-07T07:50:33;18.80;99.90
35541;DHT22;21650;48.840;9.162;2023-05-07T07:52:59;18.90;99.90
35541;DHT22;21650;48.840;9.162;2023-05-07T07:55:25;18.80;99.90
35541;DHT22;21650;48.840;9.162;2023-05-07T07:57:52;18.80;99.90
35541;DHT22;21650;48.840;9.162;2023-05-07T08:00:18;19.00;99.90
35541;DHT22;21650;48.840;9.162;2023-05-07T08:02:43;19.00;99.90
35541;DHT22;21650;48.840;9.162;2023-05-07T08:05:09;18.90;99.90
35541;DHT22;21650;48.840;9.162;2023-05-07T08:07:35;18.90;99.90
35541;DHT22;21650;48.840;9.162;2023-05-07T08:10:00;19.00;99.90
35541;DHT22;21650;48.840;9.162;2023-05-07T08:12:26;19.10;99.90
35541;DHT22;21650;48.840;9.162;2023-05-07T08:14:51;19.10;99.90
35541;DHT22;21650;48.840;9.162;2023-05-07T08:17:17;19.10;99.90
35541;DHT22;21650;48.840;9.162;2023-05-07T08:19:43;19.20;99.90
35541;DHT22;21650;48.840;9.162;2023-05-07T08:22:09;19.30;99.90
35541;DHT22;21650;48.840;9.162;2023-05-07T08:24:36;19.50;99.90
35541;DHT22;21650;48.840;9.162;2023-05-07T08:27:01;19.70;99.90
35541;DHT22;21650;48.840;9.162;2023-05-07T08:29:27;19.70;99.90
35541;DHT22;21650;48.840;9.162;2023-05-07T08:31:52;19.70;99.90
35541;DHT22;21650;48.840;9.162;2023-05-07T08:34:18;19.80;99.90
35541;DHT22;21650;48.840;9.162;2023-05-07T08:36:44;19.80;99.90
35541;DHT22;21650;48.840;9.162;2023-05-07T08:39:12;20.00;99.90
35541;DHT22;21650;48.840;9.162;2023-05-07T08:41:37;20.30;99.90
35541;DHT22;21650;48.840;9.162;2023-05-07T08:44:06;20.50;99.90
35541;DHT22;21650;48.840;9.162;2023-05-07T08:46:36;20.70;99.90
35541;DHT22;21650;48.840;9.162;2023-05-07T08:49:02;21.00;99.90
35541;DHT22;21650;48.840;9.162;2023-05-07T08:51:28;21.40;99.90
35541;DHT22;21650;48.840;9.162;2023-05-07T08:53:54;21.80;99.90
35541;DHT22;21650;48.840;9.162;2023-05-07T08:56:19;22.30;99.90
35541;DHT22;21650;48.840;9.162;2023-05-07T08:58:45;22.60;99.90
35541;DHT22;21650;48.840;9.162;2023-05-07T09:01:15;22.80;99.90
35541;DHT22;21650;48.840;9.162;2023-05-07T09:03:46;22.80;99.90
35541;DHT22;21650;48.840;9.162;2023-05-07T09:06:12;22.90;99.90
35541;DHT22;21650;48.840;9.162;2023-05-07T09:08:38;22.80;99.90
35541;DHT22;21650;48.840;9.162;2023-05-07T09:11:03;22.90;99.90
35541;DHT22;21650;48.840;9.162;2023-05-07T09:13:29;23.00;99.90
35541;DHT22;21650;48.840;9.162;2023-05-07T09:15:56;23.20;99.90
35541;DHT22;21650;48.840;9.162;2023-05-07T09:18:23;23.10;99.90
35541;DHT22;21650;48.840;9.162;2023-05-07T09:20:49;22.90;99.90
35541;DHT22;21650;48.840;9.162;2023-05-07T09:23:16;23.10;99.90
35541;DHT22;21650;48.840;9.162;2023-05-07T09:25:41;23.30;99.90
35541;DHT22;21650;48.840;9.162;2023-05-07T09:28:07;23.70;99.90
35541;DHT22;21650;48.840;9.162;2023-05-07T09:30:33;23.90;99.90
35541;DHT22;21650;48.840;9.162;2023-05-07T09:33:01;24.10;99.90
35541;DHT22;21650;48.840;9.162;2023-05-07T09:35:27;24.20;99.90
35541;DHT22;21650;48.840;9.162;2023-05-07T09:37:55;24.30;99.90
35541;DHT22;21650;48.840;9.162;2023-05-07T09:40:25;24.50;99.90
35541;DHT22;21650;48.840;9.162;2023-05-07T09:42:51;24.50;99.90
35541;DHT22;21650;48.840;9.162;2023-05-07T09:45:27;24.50;99.40
35541;DHT22;21650;48.840;9.162;2023-05-07T09:47:57;24.30;99.10
35541;DHT22;21650;48.840;9.162;2023-05-07T09:50:29;24.40;99.30
35541;DHT22;21650;48.840;9.162;2023-05-07T09:52:55;24.20;98.50
35541;DHT22;21650;48.840;9.162;2023-05-07T09:55:22;24.30;99.70
35541;DHT22;21650;48.840;9.162;2023-05-07T09:57:52;24.30;98.30
35541;DHT22;21650;48.840;9.162;2023-05-07T10:00:22;24.40;98.70
35541;DHT22;21650;48.840;9.162;2023-05-07T10:02:49;24.50;98.70
35541;DHT22;21650;48.840;9.162;2023-05-07T10:05:18;24.50;98.10
35541;DHT22;21650;48.840;9.162;2023-05-07T10:07:44;24.40;98.50
35541;DHT22;21650;48.840;9.162;2023-05-07T10:10:10;24.50;97.60
35541;DHT22;21650;48.840;9.162;2023-05-07T10:12:36;24.40;97.50
35541;DHT22;21650;48.840;9.162;2023-05-07T10:15:09;24.70;98.30
35541;DHT22;21650;48.840;9.162;2023-05-07T10:17:39;24.70;97.40
35541;DHT22;21650;48.840;9.162;2023-05-07T10:20:06;24.60;96.90
35541;DHT22;21650;48.840;9.162;2023-05-07T10:22:41;24.80;97.40
35541;DHT22;21650;48.840;9.162;2023-05-07T10:28:10;24.60;97.00
35541;DHT22;21650;48.840;9.162;2023-05-07T10:33:24;24.70;95.70
35541;DHT22;21650;48.840;9.162;2023-05-07T10:35:51;24.40;95.90
35541;DHT22;21650;48.840;9.162;2023-05-07T10:38:21;23.90;95.80
35541;DHT22;21650;48.840;9.162;2023-05-07T10:40:46;23.80;96.20
35541;DHT22;21650;48.840;9.162;2023-05-07T10:43:12;23.70;96.80
35541;DHT22;21650;48.840;9.162;2023-05-07T10:45:38;23.80;96.90
35541;DHT22;21650;48.840;9.162;2023-05-07T10:48:21;23.80;96.90
35541;DHT22;21650;48.840;9.162;2023-05-07T10:50:47;23.80;96.50
35541;DHT22;21650;48.840;9.162;2023-05-07T10:55:50;24.10;97.50
35541;DHT22;21650;48.840;9.162;2023-05-07T10:58:25;24.30;97.00
35541;DHT22;21650;48.840;9.162;2023-05-07T11:00:57;24.50;96.90
35541;DHT22;21650;48.840;9.162;2023-05-07T11:03:23;24.50;95.80
35541;DHT22;21650;48.840;9.162;2023-05-07T11:06:09;24.50;97.00
35541;DHT22;21650;48.840;9.162;2023-05-07T11:08:55;24.30;97.40
35541;DHT22;21650;48.840;9.162;2023-05-07T11:11:46;24.00;96.90
35541;DHT22;21650;48.840;9.162;2023-05-07T11:14:13;23.80;97.50
35541;DHT22;21650;48.840;9.162;2023-05-07T11:16:41;23.60;98.40
35541;DHT22;21650;48.840;9.162;2023-05-07T11:19:07;23.50;98.00
35541;DHT22;21650;48.840;9.162;2023-05-07T11:21:39;23.30;97.80
35541;DHT22;21650;48.840;9.162;2023-05-07T11:24:09;23.20;98.20
35541;DHT22;21650;48.840;9.162;2023-05-07T11:26:49;23.30;98.60
35541;DHT22;21650;48.840;9.162;2023-05-07T11:29:19;23.20;98.20
35541;DHT22;21650;48.840;9.162;2023-05-07T11:31:49;23.10;98.20
35541;DHT22;21650;48.840;9.162;2023-05-07T11:34:19;23.10;97.90
35541;DHT22;21650;48.840;9.162;2023-05-07T11:36:47;23.00;98.10
35541;DHT22;21650;48.840;9.162;2023-05-07T11:39:27;23.10;98.10
35541;DHT22;21650;48.840;9.162;2023-05-07T11:41:53;23.10;98.80
35541;DHT22;21650;48.840;9.162;2023-05-07T11:44:18;23.00;99.20
35541;DHT22;21650;48.840;9.162;2023-05-07T11:46:44;23.00;99.40
35541;DHT22;21650;48.840;9.162;2023-05-07T11:49:10;22.90;99.30
35541;DHT22;21650;48.840;9.162;2023-05-07T11:51:36;22.90;99.90
35541;DHT22;21650;48.840;9.162;2023-05-07T11:54:04;23.00;99.90
35541;DHT22;21650;48.840;9.162;2023-05-07T11:56:34;23.00;99.70
35541;DHT22;21650;48.840;9.162;2023-05-07T11:59:01;23.00;99.40
35541;DHT22;21650;48.840;9.162;2023-05-07T12:01:26;22.90;98.70
35541;DHT22;21650;48.840;9.162;2023-05-07T12:03:52;22.80;98.40
35541;DHT22;21650;48.840;9.162;2023-05-07T12:06:18;22.70;99.10
35541;DHT22;21650;48.840;9.162;2023-05-07T12:08:45;22.70;98.30
35541;DHT22;21650;48.840;9.162;2023-05-07T12:11:18;22.80;98.80
35541;DHT22;21650;48.840;9.162;2023-05-07T12:13:46;22.80;98.80
35541;DHT22;21650;48.840;9.162;2023-05-07T12:16:12;22.70;98.40
35541;DHT22;21650;48.840;9.162;2023-05-07T12:18:38;22.70;97.80
35541;DHT22;21650;48.840;9.162;2023-05-07T12:21:05;22.70;98.00
35541;DHT22;21650;48.840;9.162;2023-05-07T12:23:31;22.70;98.40
35541;DHT22;21650;48.840;9.162;2023-05-07T12:25:57;22.50;97.40
35541;DHT22;21650;48.840;9.162;2023-05-07T12:28:24;22.50;98.00
35541;DHT22;21650;48.840;9.162;2023-05-07T12:30:50;22.50;98.10
35541;DHT22;21650;48.840;9.162;2023-05-07T12:33:18;22.40;99.90
35541;DHT22;21650;48.840;9.162;2023-05-07T12:35:44;22.40;97.70
35541;DHT22;21650;48.840;9.162;2023-05-07T12:38:12;22.40;99.00
35541;DHT22;21650;48.840;9.162;2023-05-07T12:40:49;22.10;99.90
35541;DHT22;21650;48.840;9.162;2023-05-07T12:43:28;22.00;99.90
35541;DHT22;21650;48.840;9.162;2023-05-07T12:45:56;21.80;99.90
35541;DHT22;21650;48.840;9.162;2023-05-07T12:48:22;21.70;99.90
35541;DHT22;21650;48.840;9.162;2023-05-07T12:50:51;21.40;99.90
35541;DHT22;21650;48.840;9.162;2023-05-07T12:53:20;21.00;99.90
35541;DHT22;21650;48.840;9.162;2023-05-07T12:55:48;20.70;99.90
35541;DHT22;21650;48.840;9.162;2023-05-07T13:00:44;20.20;99.90
35541;DHT22;21650;48.840;9.162;2023-05-07T13:03:10;19.90;99.90
35541;DHT22;21650;48.840;9.162;2023-05-07T13:05:36;19.70;99.90
35541;DHT22;21650;48.840;9.162;2023-05-07T13:08:02;19.60;99.90
35541;DHT22;21650;48.840;9.162;2023-05-07T13:10:28;19.40;99.90
35541;DHT22;21650;48.840;9.162;2023-05-07T13:12:54;19.10;99.90
35541;DHT22;21650;48.840;9.162;2023-05-07T13:15:20;19.00;99.90
35541;DHT22;21650;48.840;9.162;2023-05-07T13:17:46;19.00;99.90
35541;DHT22;21650;48.840;9.162;2023-05-07T13:20:12;18.80;99.90
35541;DHT22;21650;48.840;9.162;2023-05-07T13:22:40;18.80;99.90
35541;DHT22;21650;48.840;9.162;2023-05-07T13:25:07;18.70;99.90
35541;DHT22;21650;48.840;9.162;2023-05-07T13:27:33;18.80;99.90
35541;DHT22;21650;48.840;9.162;2023-05-07T13:30:02;18.60;99.90
35541;DHT22;21650;48.840;9.162;2023-05-07T13:32:28;18.60;99.90
35541;DHT22;21650;48.840;9.162;2023-05-07T13:34:53;18.50;99.90
35541;DHT22;21650;48.840;9.162;2023-05-07T13:37:19;18.30;99.90
35541;DHT22;21650;48.840;9.162;2023-05-07T13:39:45;18.20;99.90
35541;DHT22;21650;48.840;9.162;2023-05-07T13:42:11;18.00;99.90
35541;DHT22;21650;48.840;9.162;2023-05-07T13:44:36;17.90;99.90
35541;DHT22;21650;48.840;9.162;2023-05-07T13:47:02;17.80;99.90
35541;DHT22;21650;48.840;9.162;2023-05-07T13:49:27;17.70;99.90
35541;DHT22;21650;48.840;9.162;2023-05-07T13:51:53;17.60;99.90
35541;DHT22;21650;48.840;9.162;2023-05-07T13:54:19;17.60;99.90
35541;DHT22;21650;48.840;9.162;2023-05-07T13:56:44;17.70;99.90
35541;DHT22;21650;48.840;9.162;2023-05-07T13:59:10;17.70;99.90
35541;DHT22;21650;48.840;9.162;2023-05-07T14:01:35;17.60;99.90
35541;DHT22;21650;48.840;9.162;2023-05-07T14:04:01;17.60;99.90
35541;DHT22;21650;48.840;9.162;2023-05-07T14:06:27;17.70;99.90
35541;DHT22;21650;48.840;9.162;2023-05-07T14:08:52;17.70;99.90
35541;DHT22;21650;48.840;9.162;2023-05-07T14:11:18;17.80;99.90
35541;DHT22;21650;48.840;9.162;2023-05-07T14:13:43;17.90;99.90
35541;DHT22;21650;48.840;9.162;2023-05-07T14:16:09;18.00;99.90
35541;DHT22;21650;48.840;9.162;2023-05-07T14:18:35;17.90;99.90
35541;DHT22;21650;48.840;9.162;2023-05-07T14:21:02;17.80;99.90
35541;DHT22;21650;48.840;9.162;2023-05-07T14:23:28;17.70;99.90
35541;DHT22;21650;48.840;9.162;2023-05-07T14:25:53;17.70;99.90
35541;DHT22;21650;48.840;9.162;2023-05-07T14:28:19;17.70;99.90
35541;DHT22;21650;48.840;9.162;2023-05-07T14:30:45;17.70;99.90
35541;DHT22;21650;48.840;9.162;2023-05-07T14:33:10;17.60;99.90
35541;DHT22;21650;48.840;9.162;2023-05-07T14:35:36;17.60;99.90
35541;DHT22;21650;48.840;9.162;2023-05-07T14:38:02;17.60;99.90
35541;DHT22;21650;48.840;9.162;2023-05-07T14:40:27;17.60;99.90
35541;DHT22;21650;48.840;9.162;2023-05-07T14:42:53;17.60;99.90
35541;DHT22;21650;48.840;9.162;2023-05-07T14:45:20;17.40;99.90
35541;DHT22;21650;48.840;9.162;2023-05-07T14:47:46;17.40;99.90
35541;DHT22;21650;48.840;9.162;2023-05-07T14:50:11;17.50;99.90
35541;DHT22;21650;48.840;9.162;2023-05-07T14:52:37;17.40;99.90
35541;DHT22;21650;48.840;9.162;2023-05-07T14:55:03;17.50;99.90
35541;DHT22;21650;48.840;9.162;2023-05-07T14:57:28;17.50;99.90
35541;DHT22;21650;48.840;9.162;2023-05-07T14:59:54;17.50;99.90
35541;DHT22;21650;48.840;9.162;2023-05-07T15:02:20;17.60;99.90
35541;DHT22;21650;48.840;9.162;2023-05-07T15:04:46;17.60;99.90
35541;DHT22;21650;48.840;9.162;2023-05-07T15:07:12;17.70;99.90
35541;DHT22;21650;48.840;9.162;2023-05-07T15:09:41;17.70;99.90
35541;DHT22;21650;48.840;9.162;2023-05-07T15:12:07;17.70;99.90
35541;DHT22;21650;48.840;9.162;2023-05-07T15:14:33;17.50;99.90
35541;DHT22;21650;48.840;9.162;2023-05-07T15:16:58;17.50;99.90
35541;DHT22;21650;48.840;9.162;2023-05-07T15:19:24;17.50;99.90
35541;DHT22;21650;48.840;9.162;2023-05-07T15:21:54;17.60;99.90
35541;DHT22;21650;48.840;9.162;2023-05-07T15:24:20;17.60;99.90
35541;DHT22;21650;48.840;9.162;2023-05-07T15:26:46;17.60;99.90
35541;DHT22;21650;48.840;9.162;2023-05-07T15:29:11;17.70;99.90
35541;DHT22;21650;48.840;9.162;2023-05-07T15:31:37;17.70;99.90
35541;DHT22;21650;48.840;9.162;2023-05-07T15:34:05;17.70;99.90
35541;DHT22;21650;48.840;9.162;2023-05-07T15:36:31;17.70;99.90
35541;DHT22;21650;48.840;9.162;2023-05-07T15:38:57;17.80;99.90